Time;durP1;ratioP1;P1;durP2;ratioP2;P2;SDS_P1;SDS_P2;PMS_P1;PMS_P2;Temp;Humidity;BMP_temperature;BMP_pressure;BME280_temperature;BME280_humidity;BME280_pressure;Samples;Min_cycle;Max_cycle;Signal;HPM_P1;HPM_P2
2024/02/16 00:02:11;;;;;;;4.65;1.50;;;;;;;10.42;100.00;98635.75;5045752;28;20020;-78
2024/02/16 00:04:36;;;;;;;5.90;1.70;;;;;;;10.28;100.00;98606.00;5049660;28;20036;-78
2024/02/16 00:07:02;;;;;;;2.88;1.45;;;;;;;10.25;100.00;98600.97;5047695;28;20012;-79
2024/02/16 00:09:27;;;;;;;4.10;1.52;;;;;;;10.19;100.00;98607.22;5063673;28;20017;-78
2024/02/16 00:11:52;;;;;;;3.67;1.73;;;;;;;10.10;100.00;98605.75;5059446;28;20024;-77
2024/02/16 00:14:18;;;;;;;5.15;2.17;;;;;;;9.88;100.00;98589.69;5064956;28;20029;-78
2024/02/16 00:16:43;;;;;;;5.00;2.13;;;;;;;9.98;100.00;98619.03;5066062;28;20375;-78
2024/02/16 00:19:09;;;;;;;6.68;2.10;;;;;;;9.64;100.00;98574.00;5041871;28;20064;-78
2024/02/16 00:21:34;;;;;;;6.25;2.42;;;;;;;9.83;100.00;98602.16;5073430;28;20035;-78
2024/02/16 00:24:02;;;;;;;4.32;2.08;;;;;;;9.72;100.00;98589.22;5051956;28;20017;-78
2024/02/16 00:26:27;;;;;;;4.30;2.45;;;;;;;9.80;100.00;98616.91;5047900;28;20124;-78
2024/02/16 00:28:53;;;;;;;3.67;2.20;;;;;;;9.79;100.00;98617.09;5057613;28;20099;-80
2024/02/16 00:31:19;;;;;;;3.90;2.13;;;;;;;9.74;100.00;98611.47;5044887;28;20028;-76
2024/02/16 00:33:44;;;;;;;8.98;2.30;;;;;;;9.65;100.00;98600.84;5048319;28;20380;-77
2024/02/16 00:36:09;;;;;;;3.63;2.05;;;;;;;9.65;100.00;98600.00;5046346;28;20031;-77
2024/02/16 00:38:35;;;;;;;4.78;2.50;;;;;;;9.60;100.00;98592.50;5045813;28;20095;-77
2024/02/16 00:41:01;;;;;;;6.07;1.70;;;;;;;9.70;100.00;98605.63;5069943;28;20263;-77
2024/02/16 00:43:26;;;;;;;4.85;1.92;;;;;;;9.83;100.00;98621.06;5063560;28;20075;-77
2024/02/16 00:45:51;;;;;;;4.35;2.03;;;;;;;9.78;100.00;98597.34;5046222;28;20268;-77
2024/02/16 00:48:18;;;;;;;3.78;1.98;;;;;;;9.98;100.00;98621.75;5062803;28;20035;-77
2024/02/16 00:50:43;;;;;;;5.82;1.95;;;;;;;9.78;100.00;98593.81;5061899;28;20048;-77
2024/02/16 00:53:09;;;;;;;6.40;1.88;;;;;;;9.73;100.00;98589.03;5045188;28;20028;-77
2024/02/16 00:55:34;;;;;;;7.45;1.83;;;;;;;10.07;100.00;98616.97;5062985;28;20044;-80
2024/02/16 00:57:59;;;;;;;5.28;1.75;;;;;;;9.95;100.00;98596.97;5044972;28;20032;-77
2024/02/16 01:00:25;;;;;;;3.40;1.80;;;;;;;9.75;100.00;98551.00;5060094;28;20246;-77
2024/02/16 01:02:52;;;;;;;3.95;1.90;;;;;;;9.92;100.00;98579.28;5045151;28;20202;-76
2024/02/16 01:05:17;;;;;;;3.83;1.60;;;;;;;9.99;100.00;98572.03;5060771;28;20021;-77
2024/02/16 01:07:43;;;;;;;3.15;1.63;;;;;;;9.82;100.00;98557.22;5066604;28;20048;-77
2024/02/16 01:10:09;;;;;;;3.55;1.60;;;;;;;9.94;100.00;98566.41;5045173;28;20035;-77
2024/02/16 01:12:34;;;;;;;3.17;1.38;;;;;;;10.05;100.00;98581.19;5058369;28;20029;-76
2024/02/16 01:15:00;;;;;;;5.40;2.10;;;;;;;10.01;100.00;98572.69;5052200;28;20017;-76
2024/02/16 01:17:25;;;;;;;2.70;1.55;;;;;;;10.31;100.00;98610.16;5051288;28;20027;-78
2024/02/16 01:19:51;;;;;;;2.78;1.45;;;;;;;10.17;100.00;98579.56;5062911;28;20047;-78
2024/02/16 01:22:16;;;;;;;3.67;1.63;;;;;;;10.16;100.00;98577.88;5049650;28;20282;-78
2024/02/16 01:24:42;;;;;;;3.60;1.90;;;;;;;10.08;100.00;98564.56;5043986;28;20018;-79
2024/02/16 01:27:07;;;;;;;4.25;1.77;;;;;;;10.19;100.00;98596.41;5061855;28;20031;-77
2024/02/16 01:29:32;;;;;;;3.65;2.00;;;;;;;10.06;100.00;98582.84;5062821;28;20037;-79
2024/02/16 01:31:58;;;;;;;4.75;1.60;;;;;;;10.01;100.00;98566.44;5044981;28;20347;-78
2024/02/16 01:34:23;;;;;;;4.43;1.63;;;;;;;10.13;100.00;98594.50;5046843;28;20045;-78
2024/02/16 01:36:49;;;;;;;3.15;1.90;;;;;;;10.23;100.00;98621.97;5045533;28;20027;-78
2024/02/16 01:39:14;;;;;;;4.28;1.70;;;;;;;10.06;100.00;98588.25;5062722;28;20024;-78
2024/02/16 01:41:39;;;;;;;4.85;1.88;;;;;;;9.87;100.00;98563.69;5043595;28;20018;-78
2024/02/16 01:44:05;;;;;;;6.38;1.73;;;;;;;9.88;100.00;98578.06;5043816;28;20032;-77
2024/02/16 01:46:31;;;;;;;3.67;1.65;;;;;;;9.95;100.00;98586.16;5063478;28;20029;-78
2024/02/16 01:48:56;;;;;;;4.93;1.63;;;;;;;9.81;100.00;98564.50;5061991;28;20048;-78
2024/02/16 01:51:24;;;;;;;2.40;1.60;;;;;;;10.08;100.00;98602.41;5044652;28;20032;-78
2024/02/16 01:53:50;;;;;;;3.08;1.27;;;;;;;10.06;100.00;98589.09;5042400;28;20305;-78
2024/02/16 01:56:15;;;;;;;2.88;1.40;;;;;;;9.79;100.00;98538.75;5062061;28;20060;-78
2024/02/16 01:58:40;;;;;;;5.25;1.73;;;;;;;10.06;100.00;98582.84;5062930;28;20078;-78
2024/02/16 02:01:06;;;;;;;6.28;2.20;;;;;;;9.87;100.00;98574.50;5051495;28;20419;-78
2024/02/16 02:03:31;;;;;;;4.38;2.17;;;;;;;9.82;100.00;98604.03;5045256;28;20052;-77
2024/02/16 02:05:56;;;;;;;4.32;2.10;;;;;;;9.83;100.00;98632.69;5062384;28;20044;-78
2024/02/16 02:08:22;;;;;;;3.88;2.17;;;;;;;9.77;100.00;98625.41;5044082;28;20032;-79
2024/02/16 02:10:47;;;;;;;4.18;2.00;;;;;;;9.56;100.00;98588.56;5045410;28;20197;-78
2024/02/16 02:13:14;;;;;;;4.45;2.05;;;;;;;9.55;100.00;98580.66;5045833;28;20044;-78
2024/02/16 02:15:40;;;;;;;3.28;1.90;;;;;;;9.67;100.00;98584.44;5063164;28;20022;-78
2024/02/16 02:18:05;;;;;;;3.97;1.77;;;;;;;9.69;100.00;98582.34;5070532;28;20039;-79
2024/02/16 02:20:30;;;;;;;5.00;2.17;;;;;;;9.56;100.00;98541.78;5056833;28;20080;-80
2024/02/16 02:22:56;;;;;;;2.50;1.52;;;;;;;9.61;100.00;98542.84;5070794;28;20056;-78
2024/02/16 02:25:21;;;;;;;2.83;1.90;;;;;;;10.02;100.00;98603.22;5044667;28;20032;-77
2024/02/16 02:27:46;;;;;;;3.80;1.83;;;;;;;9.72;100.00;98538.75;5043002;28;20100;-77
2024/02/16 02:30:12;;;;;;;6.57;2.42;;;;;;;10.03;100.00;98596.78;5061521;28;20036;-79
2024/02/16 02:32:37;;;;;;;4.05;1.92;;;;;;;10.03;100.00;98586.81;5053479;28;20025;-78
2024/02/16 02:35:04;;;;;;;2.92;1.80;;;;;;;9.77;100.00;98540.81;5043847;28;20037;-78
2024/02/16 02:37:29;;;;;;;5.13;1.92;;;;;;;10.00;100.00;98578.28;5066021;28;20320;-78
2024/02/16 02:39:55;;;;;;;3.20;1.80;;;;;;;9.90;100.00;98557.03;5050420;28;20035;-77
2024/02/16 02:42:20;;;;;;;7.55;2.00;;;;;;;9.89;100.00;98566.19;5049916;28;20052;-79
2024/02/16 02:44:49;;;;;;;3.22;1.52;;;;;;;9.73;100.00;98544.97;5066937;28;20382;-78
2024/02/16 02:47:16;;;;;;;2.72;1.58;;;;;;;9.78;100.00;98550.59;5055872;28;20047;-79
2024/02/16 02:49:42;;;;;;;4.90;2.00;;;;;;;9.62;100.00;98517.50;5063775;28;20063;-78
2024/02/16 02:52:07;;;;;;;4.00;2.10;;;;;;;9.76;100.00;98539.97;5065524;28;20024;-78
2024/02/16 02:54:33;;;;;;;3.83;1.50;;;;;;;10.05;100.00;98564.97;5062959;28;20071;-78
2024/02/16 02:56:58;;;;;;;7.90;1.77;;;;;;;9.94;100.00;98541.28;5048259;28;20328;-78
2024/02/16 02:59:24;;;;;;;2.58;1.90;;;;;;;9.94;100.00;98539.38;5049246;28;20100;-79
2024/02/16 03:01:49;;;;;;;2.30;1.58;;;;;;;9.82;100.00;98525.66;5064933;28;20075;-78
2024/02/16 03:04:14;;;;;;;4.70;1.80;;;;;;;9.76;100.00;98518.38;5070263;28;20039;-78
2024/02/16 03:06:39;;;;;;;4.13;1.65;;;;;;;9.96;100.00;98544.59;5065225;28;20092;-79
2024/02/16 03:09:05;;;;;;;3.03;1.45;;;;;;;9.73;100.00;98497.16;5058461;28;20024;-78
2024/02/16 03:11:30;;;;;;;3.50;1.58;;;;;;;10.00;100.00;98532.31;5065675;28;20040;-77
2024/02/16 03:13:55;;;;;;;4.22;1.20;;;;;;;10.02;100.00;98546.47;5047632;28;20032;-78
2024/02/16 03:16:21;;;;;;;4.63;1.60;;;;;;;10.15;100.00;98576.22;5047423;28;20355;-78
2024/02/16 03:18:46;;;;;;;3.35;1.50;;;;;;;9.85;100.00;98560.38;5052498;28;20067;-79
2024/02/16 03:21:18;;;;;;;3.80;1.63;;;;;;;9.84;100.00;98574.91;5062412;28;20021;-77
2024/02/16 03:23:43;;;;;;;3.03;1.67;;;;;;;9.76;100.00;98582.38;5047390;28;20021;-78
2024/02/16 03:26:20;;;;;;;2.25;1.40;;;;;;;9.60;100.00;98549.28;5049367;28;20039;-78
2024/02/16 03:28:48;;;;;;;2.85;1.60;;;;;;;9.57;100.00;98519.16;5075561;28;20027;-77
2024/02/16 03:31:22;;;;;;;4.25;1.67;;;;;;;9.78;100.00;98542.50;5048657;28;20275;-78
2024/02/16 03:33:48;;;;;;;3.60;1.67;;;;;;;9.71;100.00;98531.66;5047064;28;20032;-77
2024/02/16 03:36:15;;;;;;;3.75;1.73;;;;;;;9.80;100.00;98557.47;5064291;28;20032;-78
2024/02/16 03:38:42;;;;;;;5.57;1.58;;;;;;;9.82;100.00;98577.00;5062073;28;20067;-78
2024/02/16 03:41:07;;;;;;;2.50;1.60;;;;;;;9.58;100.00;98542.44;5047806;28;20052;-79
2024/02/16 03:43:33;;;;;;;6.53;1.75;;;;;;;9.53;100.00;98551.13;5066387;28;20035;-78
2024/02/16 03:45:58;;;;;;;2.90;1.58;;;;;;;9.68;100.00;98587.97;5061791;28;20021;-77
2024/02/16 03:48:23;;;;;;;3.22;1.77;;;;;;;9.40;100.00;98557.31;5046993;28;20028;-78
2024/02/16 03:50:49;;;;;;;5.72;1.85;;;;;;;9.27;100.00;98538.38;5041756;28;20024;-80
2024/02/16 03:53:14;;;;;;;4.35;2.10;;;;;;;9.39;100.00;98571.88;5065894;28;20017;-79
2024/02/16 03:55:39;;;;;;;5.28;2.17;;;;;;;9.30;100.00;98573.09;5049532;28;20040;-79
2024/02/16 03:58:04;;;;;;;3.63;1.85;;;;;;;9.15;100.00;98562.41;5070187;28;20032;-79
2024/02/16 04:00:32;;;;;;;3.63;1.80;;;;;;;9.12;100.00;98553.91;5047592;28;20025;-79
2024/02/16 04:02:57;;;;;;;4.95;1.73;;;;;;;8.92;100.00;98548.38;5065522;28;20212;-79
2024/02/16 04:05:22;;;;;;;3.55;1.80;;;;;;;9.21;100.00;98596.69;5067152;28;20053;-78
2024/02/16 04:07:47;;;;;;;3.10;1.48;;;;;;;9.10;100.00;98585.63;5065728;28;20033;-79
2024/02/16 04:10:13;;;;;;;4.45;1.63;;;;;;;9.18;100.00;98599.78;5047518;28;20052;-78
2024/02/16 04:12:38;;;;;;;6.50;1.63;;;;;;;9.25;100.00;98602.53;5057192;28;20035;-81
2024/02/16 04:15:04;;;;;;;3.78;1.70;;;;;;;9.09;100.00;98571.31;5035995;28;20035;-81
2024/02/16 04:17:29;;;;;;;3.15;1.90;;;;;;;9.21;100.00;98587.75;5050402;28;20025;-81
2024/02/16 04:19:54;;;;;;;3.95;1.50;;;;;;;9.27;100.00;98595.06;5045074;28;20345;-82
2024/02/16 04:22:20;;;;;;;3.50;1.67;;;;;;;9.24;100.00;98590.06;5052329;28;20048;-81
2024/02/16 04:24:46;;;;;;;3.92;1.70;;;;;;;9.28;100.00;98595.91;5047834;28;20386;-82
2024/02/16 04:27:11;;;;;;;5.18;1.95;;;;;;;9.26;100.00;98592.56;5044283;28;20120;-83
2024/02/16 04:29:36;;;;;;;2.15;1.27;;;;;;;9.37;100.00;98603.63;5053078;28;20025;-83
2024/02/16 04:32:02;;;;;;;4.05;1.67;;;;;;;9.34;100.00;98605.91;5058085;28;20093;-83
2024/02/16 04:34:28;;;;;;;3.22;1.70;;;;;;;9.32;100.00;98600.69;5054021;28;20013;-87
2024/02/16 04:36:53;;;;;;;3.10;1.77;;;;;;;9.44;100.00;98603.66;5059189;28;20056;-85
2024/02/16 04:39:19;;;;;;;4.45;1.75;;;;;;;9.52;100.00;98591.84;5073806;28;20029;-82
2024/02/16 04:41:45;;;;;;;3.13;1.60;;;;;;;9.56;100.00;98601.22;5072828;28;20049;-82
2024/02/16 04:44:10;;;;;;;2.85;1.40;;;;;;;9.49;100.00;98586.88;5057086;28;20021;-81
2024/02/16 04:46:35;;;;;;;2.50;1.17;;;;;;;9.68;100.00;98598.78;5059850;28;20312;-83
2024/02/16 04:49:00;;;;;;;2.85;1.55;;;;;;;9.73;100.00;98605.22;5060943;28;20056;-83
2024/02/16 04:51:26;;;;;;;2.65;1.60;;;;;;;9.78;100.00;98599.22;5046926;28;20048;-80
2024/02/16 04:53:51;;;;;;;4.32;1.40;;;;;;;9.71;100.00;98593.78;5057063;28;20111;-80
2024/02/16 04:56:16;;;;;;;3.78;1.60;;;;;;;9.72;100.00;98598.16;5057303;28;20216;-75
2024/02/16 04:58:42;;;;;;;3.00;1.40;;;;;;;9.64;100.00;98582.97;5066273;28;20067;-81
2024/02/16 05:01:08;;;;;;;2.53;1.33;;;;;;;9.88;100.00;98592.41;5047034;28;20044;-81
2024/02/16 05:03:33;;;;;;;3.05;1.50;;;;;;;9.69;100.00;98558.03;5048027;28;20044;-80
2024/02/16 05:06:00;;;;;;;4.30;1.50;;;;;;;9.82;100.00;98581.56;5042763;28;20220;-78
2024/02/16 05:08:25;;;;;;;3.70;1.20;;;;;;;9.84;100.00;98579.47;5063789;28;20328;-78
2024/02/16 05:10:50;;;;;;;1.85;1.08;;;;;;;9.98;100.00;98608.22;5043907;28;20080;-79
2024/02/16 05:13:17;;;;;;;3.47;1.75;;;;;;;9.84;100.00;98584.88;5063257;28;20029;-79
2024/02/16 05:15:43;;;;;;;3.03;1.40;;;;;;;9.68;100.00;98559.09;5044282;28;20031;-80
2024/02/16 05:18:10;;;;;;;4.32;1.40;;;;;;;9.99;100.00;98609.88;5051256;28;20020;-79
2024/02/16 05:20:36;;;;;;;3.05;1.23;;;;;;;9.97;100.00;98605.72;5063663;28;20017;-80
2024/02/16 05:23:01;;;;;;;4.63;1.50;;;;;;;9.79;100.00;98582.78;5062894;28;20089;-79
2024/02/16 05:25:27;;;;;;;2.47;1.60;;;;;;;9.78;100.00;98588.41;5052794;28;20020;-80
2024/02/16 05:27:52;;;;;;;2.08;1.15;;;;;;;9.83;100.00;98591.34;5046494;28;20092;-77
2024/02/16 05:30:18;;;;;;;3.13;1.48;;;;;;;9.67;100.00;98573.63;5043812;28;21312;-78
2024/02/16 05:32:44;;;;;;;5.25;1.60;;;;;;;9.61;100.00;98569.03;5049035;28;20027;-76
2024/02/16 05:35:14;;;;;;;2.55;1.17;;;;;;;9.69;100.00;98585.03;5045922;28;20052;-77
2024/02/16 05:37:58;;;;;;;2.70;1.35;;;;;;;9.79;100.00;98596.31;5042185;28;20382;-78
2024/02/16 05:40:27;;;;;;;2.78;1.20;;;;;;;9.88;100.00;98614.00;5061578;28;20017;-78
2024/02/16 05:42:53;;;;;;;2.30;1.33;;;;;;;9.97;100.00;98614.66;5050865;28;20021;-77
2024/02/16 05:45:19;;;;;;;3.65;1.30;;;;;;;9.79;100.00;98603.59;5073732;28;20029;-78
2024/02/16 05:47:45;;;;;;;2.90;1.30;;;;;;;9.97;100.00;98621.94;5059709;28;20039;-81
2024/02/16 05:50:12;;;;;;;3.03;1.30;;;;;;;9.92;100.00;98635.22;5064253;28;20088;-80
2024/02/16 05:52:38;;;;;;;2.78;1.30;;;;;;;9.77;100.00;98617.31;5065650;28;20020;-81
2024/02/16 05:55:05;;;;;;;1.95;1.23;;;;;;;9.86;100.00;98643.09;5052475;28;20012;-80
2024/02/16 05:57:30;;;;;;;3.45;1.30;;;;;;;9.83;100.00;98643.50;5044582;28;20054;-70
2024/02/16 05:59:56;;;;;;;3.95;1.35;;;;;;;9.66;100.00;98628.69;5058813;28;20021;-78
2024/02/16 06:02:21;;;;;;;2.78;1.45;;;;;;;9.53;100.00;98615.94;5057349;28;20017;-72
2024/02/16 06:04:46;;;;;;;5.22;2.00;;;;;;;9.51;100.00;98628.84;5058589;28;20087;-77
2024/02/16 06:07:12;;;;;;;4.55;2.25;;;;;;;9.47;100.00;98621.34;5060674;28;20100;-76
2024/02/16 06:09:37;;;;;;;2.83;1.55;;;;;;;9.44;100.00;98623.41;5063058;28;20324;-80
2024/02/16 06:12:04;;;;;;;4.00;1.40;;;;;;;9.43;100.00;98643.34;5066115;28;20055;-78
2024/02/16 06:14:33;;;;;;;4.25;1.70;;;;;;;9.27;100.00;98648.22;5045644;28;20366;-79
2024/02/16 06:17:08;;;;;;;3.40;1.35;;;;;;;9.29;100.00;98662.34;5067091;28;20021;-78
2024/02/16 06:19:34;;;;;;;1.92;1.20;;;;;;;9.13;100.00;98658.94;5063901;28;20021;-78
2024/02/16 06:21:59;;;;;;;2.65;1.50;;;;;;;9.13;100.00;98675.13;5047730;28;20017;-79
2024/02/16 06:24:25;;;;;;;2.67;1.38;;;;;;;9.00;100.00;98670.47;5070521;28;20023;-81
2024/02/16 06:26:51;;;;;;;2.60;1.38;;;;;;;8.91;100.00;98660.88;5054012;28;20155;-80
2024/02/16 06:31:49;;;;;;;2.85;1.42;;;;;;;8.90;100.00;98680.75;5058617;28;20047;-75
2024/02/16 06:34:15;;;;;;;2.22;1.27;;;;;;;8.84;100.00;98678.84;5063213;28;20052;-75
2024/02/16 06:36:41;;;;;;;2.85;1.25;;;;;;;8.83;100.00;98688.00;5063374;28;20036;-75
2024/02/16 06:39:07;;;;;;;2.13;1.50;;;;;;;8.78;100.00;98680.47;5045246;28;20035;-75
2024/02/16 06:41:32;;;;;;;5.95;1.80;;;;;;;8.88;100.00;98692.78;5046935;28;20100;-75
2024/02/16 06:43:57;;;;;;;3.97;1.90;;;;;;;8.82;100.00;98693.56;5045811;28;20020;-75
2024/02/16 06:46:24;;;;;;;3.30;1.98;;;;;;;8.79;100.00;98675.91;5061293;28;20018;-77
2024/02/16 06:48:50;;;;;;;4.30;2.15;;;;;;;8.87;100.00;98686.56;5046068;28;20320;-82
2024/02/16 06:51:15;;;;;;;5.07;2.60;;;;;;;8.93;100.00;98691.19;5042112;28;20033;-75
2024/02/16 06:53:40;;;;;;;6.15;3.17;;;;;;;8.93;100.00;98669.59;5063013;28;20029;-76
2024/02/16 06:56:06;;;;;;;7.13;3.35;;;;;;;8.91;100.00;98682.44;5060055;28;20029;-76
2024/02/16 06:58:31;;;;;;;6.28;2.85;;;;;;;9.08;100.00;98703.75;5042176;28;20362;-76
2024/02/16 07:01:02;;;;;;;6.82;3.40;;;;;;;9.05;100.00;98698.75;5065383;28;20024;-76
2024/02/16 07:03:28;;;;;;;8.48;3.53;;;;;;;9.04;100.00;98700.63;5057410;28;20020;-76
2024/02/16 07:05:53;;;;;;;9.82;3.33;;;;;;;9.16;100.00;98722.50;5061382;28;20346;-76
2024/02/16 07:08:18;;;;;;;7.97;3.17;;;;;;;9.29;100.00;98719.06;5065069;28;20029;-76
2024/02/16 07:10:44;;;;;;;8.52;4.13;;;;;;;9.52;100.00;98722.31;5057779;28;20602;-77
2024/02/16 07:13:09;;;;;;;9.60;4.18;;;;;;;9.93;100.00;98707.13;5062028;28;20024;-75
2024/02/16 07:15:35;;;;;;;7.95;3.20;;;;;;;10.01;100.00;98709.69;5047995;28;20016;-74
2024/02/16 07:18:02;;;;;;;13.10;4.15;;;;;;;10.11;100.00;98715.53;5063227;28;20040;-75
2024/02/16 07:20:28;;;;;;;7.22;2.65;;;;;;;10.15;100.00;98711.38;5044961;28;20024;-74
2024/02/16 07:22:53;;;;;;;6.57;3.38;;;;;;;10.08;100.00;98727.56;5058617;28;20100;-73
2024/02/16 07:25:19;;;;;;;5.88;2.55;;;;;;;9.91;100.00;98709.22;5059236;28;20037;-74
2024/02/16 07:27:44;;;;;;;5.03;2.75;;;;;;;9.78;100.00;98710.81;5040603;28;20063;-75
2024/02/16 07:30:13;;;;;;;9.25;2.83;;;;;;;9.60;100.00;98694.31;5045463;28;20100;-75
2024/02/16 07:32:38;;;;;;;5.78;2.60;;;;;;;9.54;100.00;98706.75;5044074;28;20055;-75
2024/02/16 07:35:04;;;;;;;4.32;2.15;;;;;;;9.52;100.00;98702.59;5067293;28;20040;-75
2024/02/16 07:37:30;;;;;;;4.63;2.38;;;;;;;9.68;100.00;98717.63;5056608;28;20021;-75
2024/02/16 07:39:55;;;;;;;7.50;2.50;;;;;;;9.55;100.00;98708.41;5058376;28;20024;-75
2024/02/16 07:42:20;;;;;;;9.15;2.78;;;;;;;9.69;100.00;98735.50;5038209;28;20068;-75
2024/02/16 07:44:46;;;;;;;6.32;2.85;;;;;;;9.69;100.00;98749.84;5052151;28;20021;-76
2024/02/16 07:47:12;;;;;;;7.03;2.92;;;;;;;9.66;100.00;98742.13;5054520;28;20016;-75
2024/02/16 07:49:39;;;;;;;7.72;3.00;;;;;;;9.51;100.00;98712.56;5051555;28;20331;-75
2024/02/16 07:52:04;;;;;;;6.28;2.72;;;;;;;9.58;100.00;98721.50;5049979;28;20040;-76
2024/02/16 07:54:30;;;;;;;6.05;2.40;;;;;;;9.81;100.00;98747.41;5062501;28;20248;-76
2024/02/16 07:56:55;;;;;;;3.63;1.95;;;;;;;9.82;100.00;98744.53;5054007;28;20025;-77
2024/02/16 07:59:21;;;;;;;4.95;2.13;;;;;;;9.78;100.00;98732.44;5039372;28;20228;-77
2024/02/16 08:01:47;;;;;;;4.63;2.47;;;;;;;10.02;100.00;98749.19;5063307;28;20021;-75
2024/02/16 08:04:12;;;;;;;5.18;2.17;;;;;;;10.12;100.00;98748.81;5051922;28;20032;-74
2024/02/16 08:06:38;;;;;;;5.72;2.15;;;;;;;10.30;100.00;98720.22;5045980;28;20031;-76
2024/02/16 08:09:04;;;;;;;5.47;1.90;;;;;;;10.84;100.00;98726.53;5065652;28;20043;-77
2024/02/16 08:11:29;;;;;;;4.50;2.13;;;;;;;11.62;100.00;98737.53;5051137;28;20092;-77
2024/02/16 08:14:00;;;;;;;4.32;2.00;;;;;;;12.20;100.00;98731.31;5041300;28;20020;-77
2024/02/16 08:16:26;;;;;;;3.13;1.90;;;;;;;13.08;100.00;98729.75;5066766;28;20058;-76
2024/02/16 08:18:52;;;;;;;7.80;2.63;;;;;;;13.95;100.00;98700.66;5060065;28;20020;-76
2024/02/16 08:21:17;;;;;;;10.05;3.25;;;;;;;15.08;100.00;98718.16;5066511;28;20021;-76
2024/02/16 08:23:42;;;;;;;8.52;3.60;;;;;;;15.72;100.00;98695.69;5049712;28;20247;-73
2024/02/16 08:26:07;;;;;;;9.93;4.35;;;;;;;15.56;100.00;98729.91;5044068;28;20096;-76
2024/02/16 08:28:33;;;;;;;9.32;4.07;;;;;;;15.81;100.00;98729.69;5062394;28;20020;-75
2024/02/16 08:30:58;;;;;;;8.05;3.60;;;;;;;15.91;100.00;98729.09;5064829;28;20016;-75
2024/02/16 08:33:23;;;;;;;9.52;4.00;;;;;;;15.97;100.00;98723.50;5060056;28;20059;-74
2024/02/16 08:35:50;;;;;;;7.45;3.38;;;;;;;16.22;100.00;98725.13;5054614;28;20060;-75
2024/02/16 08:38:16;;;;;;;8.90;3.35;;;;;;;16.96;100.00;98730.63;5041215;28;20029;-75
2024/02/16 08:40:41;;;;;;;5.40;2.60;;;;;;;16.88;100.00;98724.75;5066133;28;20324;-82
2024/02/16 08:43:09;;;;;;;4.68;2.45;;;;;;;16.79;100.00;98732.50;5057788;28;20017;-80
2024/02/16 08:45:34;;;;;;;6.45;2.50;;;;;;;16.74;100.00;98730.50;5046579;28;20037;-84
2024/02/16 08:48:03;;;;;;;6.18;2.17;;;;;;;16.62;100.00;98724.25;5052718;28;20060;-77
2024/02/16 08:50:29;;;;;;;7.53;3.08;;;;;;;16.59;100.00;98724.75;5044666;28;20032;-79
2024/02/16 08:52:55;;;;;;;8.15;2.95;;;;;;;16.33;100.00;98723.41;5048357;28;20047;-71
2024/02/16 08:55:20;;;;;;;5.82;2.58;;;;;;;16.77;100.00;98688.19;5054918;28;20232;-78
2024/02/16 08:57:45;;;;;;;5.20;2.67;;;;;;;17.73;100.00;98705.28;5046719;28;20028;-76
2024/02/16 09:00:11;;;;;;;4.00;2.28;;;;;;;18.75;100.00;98724.94;5058473;28;20027;-78
2024/02/16 09:02:37;;;;;;;6.00;2.53;;;;;;;19.00;100.00;98716.13;5048000;28;20092;-78
2024/02/16 09:05:03;;;;;;;6.30;2.50;;;;;;;19.25;100.00;98723.75;5058010;28;20028;-77
2024/02/16 09:07:29;;;;;;;3.42;2.13;;;;;;;19.15;100.00;98722.84;5065000;28;20033;-85
2024/02/16 09:09:54;;;;;;;3.40;2.00;;;;;;;18.89;100.00;98700.69;5040208;28;20025;-79
2024/02/16 09:12:19;;;;;;;3.75;2.03;;;;;;;18.89;100.00;98736.34;5060486;28;20072;-78
2024/02/16 09:14:46;;;;;;;5.57;2.47;;;;;;;18.86;100.00;98717.63;5059915;28;20045;-82
2024/02/16 09:17:11;;;;;;;5.22;2.45;;;;;;;19.27;100.00;98737.22;5042665;28;20028;-82
2024/02/16 09:19:36;;;;;;;5.47;2.17;;;;;;;19.91;100.00;98736.28;5041354;28;20132;-76
2024/02/16 09:22:02;;;;;;;5.57;2.45;;;;;;;19.33;100.00;98721.63;5058877;28;20033;-79
2024/02/16 09:24:29;;;;;;;6.82;2.53;;;;;;;19.36;100.00;98729.31;5062249;28;20328;-80
2024/02/16 09:26:55;;;;;;;5.22;2.42;;;;;;;19.44;100.00;98728.81;5045067;28;20032;-75
2024/02/16 09:29:21;;;;;;;4.80;2.00;;;;;;;19.47;100.00;98742.88;5057836;28;20032;-74
2024/02/16 09:31:50;;;;;;;4.03;2.20;;;;;;;19.48;100.00;98744.50;5063489;28;20041;-80
2024/02/16 09:34:15;;;;;;;5.60;2.40;;;;;;;19.33;100.00;98741.63;5043520;28;20048;-74
2024/02/16 09:36:40;;;;;;;6.65;2.85;;;;;;;19.05;100.00;98751.84;5055962;28;20048;-75
2024/02/16 09:39:06;;;;;;;5.47;2.20;;;;;;;19.19;100.00;98740.44;5057589;28;20024;-81
2024/02/16 09:41:35;;;;;;;6.10;2.38;;;;;;;19.45;100.00;98753.25;5039892;28;20022;-82
2024/02/16 09:44:02;;;;;;;5.93;2.60;;;;;;;18.50;100.00;98732.88;5061700;28;20036;-81
2024/02/16 09:46:29;;;;;;;7.22;2.63;;;;;;;18.56;100.00;98738.13;5040079;28;20037;-80
2024/02/16 09:48:56;;;;;;;6.05;2.28;;;;;;;18.17;100.00;98730.00;5041201;28;20021;-80
2024/02/16 09:51:22;;;;;;;6.05;2.30;;;;;;;18.00;100.00;98747.56;5037976;28;20198;-78
2024/02/16 09:53:55;;;;;;;7.80;2.33;;;;;;;18.86;100.00;98771.63;5041955;28;20067;-76
2024/02/16 09:56:21;;;;;;;4.93;1.98;;;;;;;19.02;100.00;98749.63;5054400;28;20065;-80
2024/02/16 09:58:47;;;;;;;5.78;2.20;;;;;;;19.29;100.00;98772.63;5066190;28;20027;-77
2024/02/16 10:01:20;;;;;;;6.95;2.13;;;;;;;19.29;100.00;98780.84;5043234;28;20084;-80
2024/02/16 10:03:45;;;;;;;8.10;2.20;;;;;;;19.97;100.00;98775.63;5042897;28;20071;-82
2024/02/16 10:06:11;;;;;;;8.95;2.17;;;;;;;20.16;95.52;98765.84;5045213;28;20100;-78
2024/02/16 10:08:56;;;;;;;4.63;2.25;;;;;;;20.31;92.49;98787.06;5059707;28;20323;-78
2024/02/16 10:11:24;;;;;;;7.30;2.05;;;;;;;20.00;92.97;98788.81;5056268;28;20033;-73
2024/02/16 10:14:03;;;;;;;7.40;2.42;;;;;;;20.52;92.05;98790.72;5053973;28;20052;-72
2024/02/16 10:16:29;;;;;;;;;;;;;;;20.73;86.88;98797.97;5055835;28;20075;-76
2024/02/16 10:19:11;;;;;;;5.20;2.03;;;;;;;20.74;85.76;98763.06;5057209;28;20100;-76
2024/02/16 10:21:36;;;;;;;8.32;1.88;;;;;;;20.88;85.09;98801.88;5037881;28;20231;-79
2024/02/16 10:24:07;;;;;;;6.28;2.00;;;;;;;20.25;85.28;98785.38;5044902;28;20028;-79
2024/02/16 10:26:37;;;;;;;4.93;1.80;;;;;;;20.73;82.47;98797.16;5046348;28;20059;-78
2024/02/16 10:29:04;;;;;;;5.53;1.75;;;;;;;21.44;79.39;98802.00;5038880;28;20144;-77
2024/02/16 10:31:30;;;;;;;9.30;1.98;;;;;;;20.59;74.64;98791.31;5058848;28;20051;-76
2024/02/16 10:34:09;;;;;;;3.30;1.58;;;;;;;20.67;76.80;98799.06;5057825;28;20024;-76
2024/02/16 10:36:37;;;;;;;4.43;1.60;;;;;;;20.41;76.44;98813.75;5051762;28;20352;-75
2024/02/16 10:39:11;;;;;;;3.97;1.60;;;;;;;20.95;75.33;98813.44;5053765;28;20031;-75
2024/02/16 10:41:41;;;;;;;3.60;2.10;;;;;;;21.13;74.90;98817.63;5052003;28;20088;-72
2024/02/16 10:44:07;;;;;;;4.05;1.80;;;;;;;20.51;76.58;98813.78;5054176;28;20215;-72
2024/02/16 10:46:33;;;;;;;5.03;1.85;;;;;;;20.05;78.61;98830.06;5055318;28;20029;-72
2024/02/16 10:48:58;;;;;;;3.90;2.50;;;;;;;19.19;81.55;98760.44;5051924;28;20060;-73
2024/02/16 10:51:46;;;;;;;10.65;2.55;;;;;;;19.06;83.65;98826.69;5040914;28;20395;-71
2024/02/16 10:54:15;;;;;;;4.38;2.47;;;;;;;18.77;85.96;98815.13;5050991;28;20021;-72
2024/02/16 10:56:40;;;;;;;5.00;2.60;;;;;;;19.04;87.19;98837.91;5042353;28;20224;-72
2024/02/16 10:59:08;;;;;;;7.95;2.47;;;;;;;19.39;86.23;98833.06;5055030;28;20025;-71
2024/02/16 11:01:38;;;;;;;6.72;2.40;;;;;;;19.17;86.00;98825.69;5054546;28;20033;-73
2024/02/16 11:04:08;;;;;;;6.60;2.28;;;;;;;19.08;88.49;98830.00;5058514;28;20021;-72
2024/02/16 11:06:48;;;;;;;6.57;2.25;;;;;;;18.83;89.16;98822.31;5063927;28;20044;-73
2024/02/16 11:09:25;;;;;;;6.43;2.88;;;;;;;19.03;90.40;98819.81;5059923;28;20051;-73
2024/02/16 11:11:53;;;;;;;6.68;2.50;;;;;;;19.14;86.86;98817.19;5052291;28;20057;-73
2024/02/16 11:14:18;;;;;;;4.65;2.17;;;;;;;19.58;84.57;98812.38;5058212;28;20037;-74
2024/02/16 11:16:45;;;;;;;5.03;2.42;;;;;;;19.30;85.42;98821.72;5052718;28;20041;-73
2024/02/16 11:19:10;;;;;;;5.00;2.30;;;;;;;19.39;87.09;98824.84;5058934;28;20216;-74
2024/02/16 11:21:36;;;;;;;4.25;2.05;;;;;;;19.97;84.32;98812.16;5057109;28;20028;-74
2024/02/16 11:24:08;;;;;;;4.55;1.88;;;;;;;20.13;85.30;98810.31;5035472;28;20076;-75
2024/02/16 11:26:42;;;;;;;4.47;2.00;;;;;;;20.64;82.25;98813.34;5059935;28;20031;-75
2024/02/16 11:29:10;;;;;;;5.57;2.50;;;;;;;20.40;83.84;98820.34;5062876;28;20025;-72
2024/02/16 11:31:35;;;;;;;4.72;2.05;;;;;;;20.45;81.18;98815.69;5058637;28;20029;-71